Time;durP1;ratioP1;P1;durP2;ratioP2;P2;SDS_P1;SDS_P2;PMS_P1;PMS_P2;Temp;Humidity;BMP_temperature;BMP_pressure;BME280_temperature;BME280_humidity;BME280_pressure;Samples;Min_cycle;Max_cycle;Signal;HPM_P1;HPM_P2
2023/03/11 00:02:06;;;;;;;;;;;;;;;2.81;69.66;97213.34;7368792;19;19923;-81
2023/03/11 00:04:38;;;;;;;;;;;;;;;2.72;69.11;97214.16;7377148;19;19910;-81
2023/03/11 00:07:09;;;;;;;;;;;;;;;2.71;69.28;97215.09;7371846;19;20586;-82
2023/03/11 00:09:36;;;;;;;;;;;;;;;2.64;68.37;97211.41;7375042;19;20338;-81
2023/03/11 00:12:04;;;;;;;;;;;;;;;2.51;68.97;97229.91;7368318;19;19918;-79
2023/03/11 00:14:32;;;;;;;;;;;;;;;2.67;68.90;97229.41;7377365;19;19954;-84
2023/03/11 00:17:01;;;;;;;;;;;;;;;2.42;68.63;97217.66;7368463;19;19939;-81
2023/03/11 00:19:28;;;;;;;;;;;;;;;2.52;68.74;97231.56;7377249;19;19943;-80
2023/03/11 00:21:54;;;;;;;;;;;;;;;2.38;69.87;97237.97;7379107;19;19919;-81
2023/03/11 00:24:21;;;;;;;;;;;;;;;2.33;70.04;97228.91;7371583;19;19954;-80
2023/03/11 00:26:48;;;;;;;;;;;;;;;2.41;70.23;97252.56;7372556;19;20423;-79
2023/03/11 00:29:15;;;;;;;;;;;;;;;2.41;70.93;97252.56;7368485;19;19923;-82
2023/03/11 00:31:44;;;;;;;;;;;;;;;2.19;70.57;97243.13;7375579;19;19922;-82
2023/03/11 00:34:11;;;;;;;;;;;;;;;2.28;70.58;97236.31;7378869;19;19923;-84
2023/03/11 00:36:38;;;;;;;;;;;;;;;2.32;71.18;97238.53;7377715;19;19925;-85
2023/03/11 00:39:09;;;;;;;;;;;;;;;2.18;71.04;97244.91;7379204;19;19950;-86
2023/03/11 00:41:36;;;;;;;;;;;;;;;2.08;71.27;97246.66;7381599;19;20029;-80
2023/03/11 00:44:03;;;;;;;;;;;;;;;2.12;70.55;97236.78;7374256;19;19923;-84
2023/03/11 00:46:30;;;;;;;;;;;;;;;2.11;71.22;97258.63;7381606;19;19923;-82
2023/03/11 00:48:56;;;;;;;;;;;;;;;2.07;71.78;97250.22;7380321;19;19922;-80
2023/03/11 00:51:23;;;;;;;;;;;;;;;2.34;71.38;97262.72;7379955;19;20376;-83
2023/03/11 00:53:50;;;;;;;;;;;;;;;2.14;71.45;97264.41;7378766;19;19986;-84
2023/03/11 00:56:17;;;;;;;;;;;;;;;2.25;71.85;97273.09;7380622;19;19974;-81
2023/03/11 00:58:44;;;;;;;;;;;;;;;2.25;71.68;97275.72;7382079;19;19936;-82
2023/03/11 01:01:12;;;;;;;;;;;;;;;2.39;71.54;97281.38;7375978;19;19918;-85
2023/03/11 01:03:39;;;;;;;;;;;;;;;2.36;71.62;97281.66;7376495;19;20343;-83
2023/03/11 01:06:05;;;;;;;;;;;;;;;2.42;71.85;97293.34;7379993;19;19910;-81
2023/03/11 01:08:32;;;;;;;;;;;;;;;2.35;72.03;97282.63;7384191;19;19922;-85
2023/03/11 01:10:58;;;;;;;;;;;;;;;2.40;71.56;97295.28;7382048;19;19938;-83
2023/03/11 01:13:26;;;;;;;;;;;;;;;2.40;71.80;97279.63;7376792;19;19947;-82
2023/03/11 01:15:54;;;;;;;;;;;;;;;2.28;72.16;97286.69;7378456;19;19929;-84
2023/03/11 01:18:21;;;;;;;;;;;;;;;2.24;72.27;97271.44;7372706;19;19923;-84
2023/03/11 01:20:47;;;;;;;;;;;;;;;2.06;71.93;97269.44;7376288;19;19926;-79
2023/03/11 01:23:14;;;;;;;;;;;;;;;1.95;71.99;97282.56;7375837;19;19911;-81
2023/03/11 01:25:41;;;;;;;;;;;;;;;1.92;71.42;97272.38;7377918;19;19962;-82
2023/03/11 01:28:08;;;;;;;;;;;;;;;1.92;72.01;97267.16;7375726;19;20116;-78
2023/03/11 01:30:35;;;;;;;;;;;;;;;2.01;72.02;97276.00;7383346;19;19919;-82
2023/03/11 01:33:02;;;;;;;;;;;;;;;1.98;72.01;97290.13;7378755;19;19951;-81
2023/03/11 01:35:29;;;;;;;;;;;;;;;1.92;72.44;97265.41;7378965;19;19915;-82
2023/03/11 01:37:57;;;;;;;;;;;;;;;1.88;72.31;97284.84;7378192;19;20036;-81
2023/03/11 01:40:27;;;;;;;;;;;;;;;1.85;72.17;97268.66;7379636;19;22551;-82
2023/03/11 01:42:55;;;;;;;;;;;;;;;1.95;72.71;97291.22;7380819;19;20523;-82
2023/03/11 01:45:28;;;;;;;;;;;;;;;1.92;72.57;97301.06;7379339;19;19938;-83
2023/03/11 01:47:55;;;;;;;;;;;;;;;1.82;73.28;97266.25;7374736;19;19935;-84
2023/03/11 01:50:21;;;;;;;;;;;;;;;1.70;73.10;97305.44;7378417;19;19919;-79
2023/03/11 01:52:48;;;;;;;;;;;;;;;1.73;72.89;97283.50;7379183;19;19910;-85
2023/03/11 01:55:16;;;;;;;;;;;;;;;1.86;73.39;97285.94;7379842;19;19915;-86
2023/03/11 01:57:43;;;;;;;;;;;;;;;1.63;73.51;97285.22;7380653;19;19923;-85
2023/03/11 02:00:10;;;;;;;;;;;;;;;1.84;73.24;97274.78;7380659;19;19921;-85
2023/03/11 02:02:41;;;;;;;;;;;;;;;1.66;72.85;97280.59;7386784;19;19931;-86
2023/03/11 02:05:08;;;;;;;;;;;;;;;1.71;73.86;97286.25;7383522;19;19915;-86
2023/03/11 02:07:34;;;;;;;;;;;;;;;1.71;74.05;97294.09;7384923;19;19927;-86
2023/03/11 02:10:02;;;;;;;;;;;;;;;1.68;73.90;97288.28;7382885;19;20338;-85
2023/03/11 02:12:29;;;;;;;;;;;;;;;1.71;74.19;97285.41;7380217;19;19919;-86
2023/03/11 02:14:56;;;;;;;;;;;;;;;1.67;73.45;97297.06;7381012;19;19919;-83
2023/03/11 02:17:23;;;;;;;;;;;;;;;1.77;73.50;97313.59;7380792;19;19957;-86
2023/03/11 02:20:11;;;;;;;;;;;;;;;1.82;73.09;97323.63;7379308;19;19915;-88
2023/03/11 02:22:41;;;;;;;;;;;;;;;1.74;73.10;97332.13;7380596;19;19915;-82
2023/03/11 02:25:14;;;;;;;;;;;;;;;1.80;73.20;97325.56;7380615;19;19926;-87
2023/03/11 02:27:41;;;;;;;;;;;;;;;1.62;72.77;97333.94;7378412;19;19929;-82
2023/03/11 02:30:09;;;;;;;;;;;;;;;1.67;72.77;97344.81;7377034;19;19927;-86
2023/03/11 02:32:37;;;;;;;;;;;;;;;1.57;72.65;97340.47;7380915;19;19930;-83
2023/03/11 02:35:04;;;;;;;;;;;;;;;1.64;72.97;97326.00;7381618;19;20361;-86
2023/03/11 02:37:31;;;;;;;;;;;;;;;1.62;72.93;97330.50;7375403;19;20142;-86
2023/03/11 02:40:21;;;;;;;;;;;;;;;1.54;72.68;97318.09;7380700;19;20348;-83
2023/03/11 02:42:50;;;;;;;;;;;;;;;1.34;72.99;97319.69;7380232;19;20619;-84
2023/03/11 02:45:17;;;;;;;;;;;;;;;1.35;73.59;97318.78;7378516;19;19914;-86
2023/03/11 02:47:44;;;;;;;;;;;;;;;1.06;74.44;97315.91;7378846;19;19931;-87
2023/03/11 02:50:12;;;;;;;;;;;;;;;1.03;73.94;97321.34;7375206;19;20355;-85
2023/03/11 02:52:39;;;;;;;;;;;;;;;0.95;73.88;97319.34;7379699;19;19931;-86
2023/03/11 02:55:06;;;;;;;;;;;;;;;0.94;73.37;97327.28;7379099;19;19926;-85
2023/03/11 02:57:33;;;;;;;;;;;;;;;1.03;73.40;97326.56;7378088;19;19919;-86
2023/03/11 03:00:07;;;;;;;;;;;;;;;0.92;74.40;97327.38;7381571;19;19967;-85
2023/03/11 03:02:33;;;;;;;;;;;;;;;1.03;73.60;97336.97;7379985;19;20526;-85
2023/03/11 03:05:00;;;;;;;;;;;;;;;0.81;73.87;97341.25;7376907;19;19923;-85
2023/03/11 03:07:27;;;;;;;;;;;;;;;1.04;73.88;97336.03;7376377;19;19956;-85
2023/03/11 03:09:54;;;;;;;;;;;;;;;0.73;74.05;97354.03;7379716;19;19929;-86
2023/03/11 03:12:21;;;;;;;;;;;;;;;0.81;74.10;97346.47;7374958;19;19939;-85
2023/03/11 03:14:47;;;;;;;;;;;;;;;0.78;73.96;97353.69;7379204;19;19915;-87
2023/03/11 03:17:15;;;;;;;;;;;;;;;0.86;74.11;97357.34;7372564;19;19921;-86
2023/03/11 03:19:42;;;;;;;;;;;;;;;0.74;73.55;97366.13;7379314;19;19964;-86
2023/03/11 03:22:08;;;;;;;;;;;;;;;0.52;73.37;97366.94;7372084;19;19948;-86
2023/03/11 03:24:35;;;;;;;;;;;;;;;0.55;73.28;97374.50;7375722;19;19982;-85
2023/03/11 03:27:02;;;;;;;;;;;;;;;0.63;72.39;97384.34;7369660;19;19933;-85
2023/03/11 03:29:29;;;;;;;;;;;;;;;0.59;72.56;97375.94;7373995;19;20822;-86
2023/03/11 03:31:57;;;;;;;;;;;;;;;0.63;71.64;97368.72;7376718;19;19939;-86
2023/03/11 03:34:24;;;;;;;;;;;;;;;0.40;71.12;97362.69;7373412;19;19986;-85
2023/03/11 03:36:51;;;;;;;;;;;;;;;0.52;71.10;97361.75;7377908;19;19922;-87
2023/03/11 03:39:18;;;;;;;;;;;;;;;0.54;71.02;97364.22;7371391;19;19935;-85
2023/03/11 03:41:47;;;;;;;;;;;;;;;0.41;71.02;97370.38;7376694;19;19923;-87
2023/03/11 03:44:14;;;;;;;;;;;;;;;0.49;71.26;97375.00;7370107;19;19938;-85
2023/03/11 03:46:41;;;;;;;;;;;;;;;0.38;72.13;97377.59;7376321;19;19933;-86
2023/03/11 03:49:08;;;;;;;;;;;;;;;0.48;71.37;97382.94;7375918;19;19996;-86
2023/03/11 03:51:36;;;;;;;;;;;;;;;0.24;71.27;97383.00;7376285;19;19918;-84
2023/03/11 03:54:10;;;;;;;;;;;;;;;0.33;71.47;97390.94;7371240;19;19923;-86
2023/03/11 03:56:37;;;;;;;;;;;;;;;0.47;71.63;97392.50;7373664;19;19919;-87
2023/03/11 03:59:04;;;;;;;;;;;;;;;0.46;71.28;97396.03;7376724;19;19923;-87
2023/03/11 04:01:36;;;;;;;;;;;;;;;0.30;71.21;97403.38;7381134;19;20550;-84
2023/03/11 04:04:06;;;;;;;;;;;;;;;0.43;71.13;97404.91;7381928;19;19911;-85
2023/03/11 04:06:33;;;;;;;;;;;;;;;0.43;70.82;97404.09;7379859;19;19923;-85
2023/03/11 04:09:03;;;;;;;;;;;;;;;0.46;71.06;97395.22;7382333;19;19926;-85
2023/03/11 04:11:33;;;;;;;;;;;;;;;0.60;71.15;97400.19;7379423;19;19919;-86
2023/03/11 04:14:01;;;;;;;;;;;;;;;0.57;71.28;97400.44;7382536;19;19943;-85
2023/03/11 04:16:29;;;;;;;;;;;;;;;0.52;70.48;97397.34;7379855;19;19923;-85
2023/03/11 04:19:01;;;;;;;;;;;;;;;0.36;71.53;97415.91;7382117;19;20299;-83
2023/03/11 04:21:28;;;;;;;;;;;;;;;0.50;71.58;97417.44;7379970;19;19939;-85
2023/03/11 04:23:55;;;;;;;;;;;;;;;0.55;70.89;97421.34;7381601;19;19935;-84
2023/03/11 04:26:27;;;;;;;;;;;;;;;0.46;71.74;97419.47;7378641;19;19925;-85
2023/03/11 04:28:54;;;;;;;;;;;;;;;0.53;71.69;97418.06;7385245;19;19919;-84
2023/03/11 04:31:22;;;;;;;;;;;;;;;0.48;71.96;97420.19;7379457;19;19974;-85
2023/03/11 04:33:48;;;;;;;;;;;;;;;0.32;72.25;97420.50;7382578;19;19926;-85
2023/03/11 04:36:17;;;;;;;;;;;;;;;0.48;71.87;97420.19;7378301;19;19922;-85
2023/03/11 04:38:45;;;;;;;;;;;;;;;0.30;72.03;97409.38;7384363;19;19922;-85
2023/03/11 04:41:12;;;;;;;;;;;;;;;0.33;72.30;97413.53;7378640;19;19925;-84
2023/03/11 04:43:40;;;;;;;;;;;;;;;0.18;72.38;97412.91;7380922;19;19942;-86
2023/03/11 04:46:07;;;;;;;;;;;;;;;0.22;72.50;97409.13;7380773;19;19953;-85
2023/03/11 04:48:34;;;;;;;;;;;;;;;0.25;72.29;97414.09;7382017;19;19914;-85
2023/03/11 04:51:01;;;;;;;;;;;;;;;0.23;72.52;97408.19;7379338;19;20000;-84
2023/03/11 04:53:28;;;;;;;;;;;;;;;0.10;72.97;97410.03;7375102;19;19915;-85
2023/03/11 04:55:58;;;;;;;;;;;;;;;-0.03;72.76;97416.16;7381415;19;19933;-83
2023/03/11 04:58:25;;;;;;;;;;;;;;;0.20;72.93;97417.03;7376897;19;20229;-85
2023/03/11 05:00:52;;;;;;;;;;;;;;;0.11;72.77;97415.16;7382253;19;19943;-85
2023/03/11 05:03:19;;;;;;;;;;;;;;;0.07;73.24;97428.47;7375549;19;19929;-84
2023/03/11 05:05:46;;;;;;;;;;;;;;;0.11;73.50;97425.53;7379527;19;20681;-86
2023/03/11 05:08:13;;;;;;;;;;;;;;;0.12;73.25;97421.16;7374067;19;19933;-85
2023/03/11 05:10:41;;;;;;;;;;;;;;;0.11;73.58;97422.13;7379977;19;20320;-86
2023/03/11 05:13:08;;;;;;;;;;;;;;;0.19;73.30;97415.41;7377927;19;19919;-85
2023/03/11 05:15:37;;;;;;;;;;;;;;;0.20;73.41;97424.03;7377734;19;19914;-86
2023/03/11 05:18:05;;;;;;;;;;;;;;;0.09;73.33;97424.81;7377305;19;19918;-84
2023/03/11 05:20:33;;;;;;;;;;;;;;;-0.14;73.76;97425.69;7374811;19;19927;-83
2023/03/11 05:23:00;;;;;;;;;;;;;;;0.04;73.74;97436.50;7380915;19;19986;-84
2023/03/11 05:25:29;;;;;;;;;;;;;;;-0.08;74.51;97436.47;7377239;19;19965;-85
2023/03/11 05:27:56;;;;;;;;;;;;;;;-0.15;74.37;97440.47;7378170;19;19926;-85
2023/03/11 05:30:23;;;;;;;;;;;;;;;-0.19;74.30;97436.41;7374554;19;19941;-85
2023/03/11 05:32:50;;;;;;;;;;;;;;;-0.16;74.70;97436.19;7380888;19;20559;-85
2023/03/11 05:35:17;;;;;;;;;;;;;;;-0.24;74.99;97438.50;7373351;19;19937;-85
2023/03/11 05:37:44;;;;;;;;;;;;;;;-0.21;75.35;97438.31;7376864;19;19942;-86
2023/03/11 05:40:11;;;;;;;;;;;;;;;-0.28;75.12;97440.50;7379122;19;20029;-84
2023/03/11 05:42:40;;;;;;;;;;;;;;;-0.38;75.38;97449.09;7377063;19;19918;-85
2023/03/11 05:45:08;;;;;;;;;;;;;;;-0.32;75.47;97452.06;7376961;19;19929;-85
2023/03/11 05:47:36;;;;;;;;;;;;;;;-0.28;75.55;97447.50;7373196;19;19923;-85
2023/03/11 05:50:03;;;;;;;;;;;;;;;-0.28;75.08;97443.13;7380606;19;19926;-85
2023/03/11 05:52:32;;;;;;;;;;;;;;;-0.32;75.57;97444.25;7376546;19;20260;-84
2023/03/11 05:54:59;;;;;;;;;;;;;;;-0.39;75.82;97445.66;7381029;19;19925;-83
2023/03/11 05:57:28;;;;;;;;;;;;;;;-0.29;75.62;97445.81;7374446;19;19922;-84
2023/03/11 05:59:55;;;;;;;;;;;;;;;-0.36;75.58;97452.41;7387426;19;20021;-85
2023/03/11 06:02:23;;;;;;;;;;;;;;;-0.31;75.21;97458.94;7379783;19;19922;-85
2023/03/11 06:04:50;;;;;;;;;;;;;;;-0.27;75.06;97457.75;7379136;19;19994;-86
2023/03/11 06:07:17;;;;;;;;;;;;;;;-0.26;75.53;97469.84;7376421;19;19919;-85
2023/03/11 06:09:48;;;;;;;;;;;;;;;-0.24;74.75;97469.69;7379458;19;19951;-85
2023/03/11 06:12:16;;;;;;;;;;;;;;;-0.34;74.85;97474.75;7374626;19;19926;-85
2023/03/11 06:14:52;;;;;;;;;;;;;;;-0.26;75.27;97477.63;7384993;19;20303;-85
2023/03/11 06:17:18;;;;;;;;;;;;;;;-0.28;75.20;97473.47;7374849;19;19919;-86
2023/03/11 06:19:45;;;;;;;;;;;;;;;-0.25;75.48;97473.25;7382733;19;19943;-86
2023/03/11 06:22:12;;;;;;;;;;;;;;;-0.14;75.05;97477.69;7380400;19;19918;-85
2023/03/11 06:24:39;;;;;;;;;;;;;;;-0.16;75.19;97482.97;7371970;19;19928;-85
2023/03/11 06:27:08;;;;;;;;;;;;;;;-0.13;74.87;97481.91;7373151;19;20624;-85
2023/03/11 06:29:34;;;;;;;;;;;;;;;0.02;74.81;97474.78;7377182;19;19918;-85
2023/03/11 06:32:02;;;;;;;;;;;;;;;0.13;74.41;97485.22;7382533;19;19911;-85
2023/03/11 06:34:29;;;;;;;;;;;;;;;0.35;74.03;97479.28;7375808;19;19915;-84
2023/03/11 06:36:56;;;;;;;;;;;;;;;0.48;73.76;97487.84;7376074;19;19932;-84
2023/03/11 06:39:22;;;;;;;;;;;;;;;0.48;73.19;97487.03;7375172;19;19926;-84
2023/03/11 06:41:50;;;;;;;;;;;;;;;0.56;73.40;97493.31;7377375;19;19915;-84
2023/03/11 06:44:17;;;;;;;;;;;;;;;0.48;73.47;97498.25;7370090;19;19953;-85
2023/03/11 06:46:44;;;;;;;;;;;;;;;0.39;73.67;97512.75;7375695;19;19936;-84
2023/03/11 06:49:11;;;;;;;;;;;;;;;0.43;73.92;97511.59;7378979;19;19923;-84
2023/03/11 06:51:40;;;;;;;;;;;;;;;0.25;73.38;97515.56;7374662;19;19914;-84
2023/03/11 06:54:07;;;;;;;;;;;;;;;0.31;73.82;97522.06;7373946;19;19938;-85
2023/03/11 06:56:34;;;;;;;;;;;;;;;0.32;73.35;97519.38;7371566;19;19927;-85
2023/03/11 06:59:04;;;;;;;;;;;;;;;0.42;73.31;97535.13;7376803;19;19939;-85
2023/03/11 07:01:32;;;;;;;;;;;;;;;0.54;73.25;97534.22;7370461;19;19922;-86
2023/03/11 07:04:02;;;;;;;;;;;;;;;0.40;73.13;97534.44;7377602;19;20663;-85
2023/03/11 07:06:29;;;;;;;;;;;;;;;0.53;73.55;97537.78;7374407;19;19942;-84
2023/03/11 07:09:07;;;;;;;;;;;;;;;0.54;73.09;97546.41;7375013;19;19918;-85
2023/03/11 07:11:37;;;;;;;;;;;;;;;0.64;72.65;97544.78;7372147;19;19919;-85
2023/03/11 07:14:09;;;;;;;;;;;;;;;0.63;72.29;97543.97;7374016;19;19914;-85
2023/03/11 07:16:39;;;;;;;;;;;;;;;0.70;71.97;97541.72;7375968;19;19925;-84
2023/03/11 07:19:13;;;;;;;;;;;;;;;0.89;71.55;97533.34;7374337;19;19915;-85
2023/03/11 07:21:40;;;;;;;;;;;;;;;0.67;71.08;97543.72;7374387;19;21085;-84
2023/03/11 07:24:06;;;;;;;;;;;;;;;0.75;70.69;97552.63;7375406;19;20282;-86
2023/03/11 07:26:34;;;;;;;;;;;;;;;0.97;71.11;97551.81;7371316;19;19918;-86
2023/03/11 07:29:00;;;;;;;;;;;;;;;1.01;70.84;97550.66;7376125;19;19919;-85
2023/03/11 07:31:36;;;;;;;;;;;;;;;0.97;69.57;97559.63;7370644;19;20368;-85
2023/03/11 07:34:05;;;;;;;;;;;;;;;0.81;69.99;97557.34;7374675;19;19923;-83
2023/03/11 07:36:55;;;;;;;;;;;;;;;1.04;71.10;97555.63;7373305;19;20333;-83
2023/03/11 07:39:22;;;;;;;;;;;;;;;1.13;70.21;97555.88;7375058;19;19939;-85
2023/03/11 07:41:48;;;;;;;;;;;;;;;1.32;69.72;97563.97;7373405;19;19918;-84
2023/03/11 07:44:25;;;;;;;;;;;;;;;1.33;68.93;97562.19;7377988;19;19937;-85
2023/03/11 07:46:52;;;;;;;;;;;;;;;1.39;67.99;97567.75;7377963;19;19923;-85
2023/03/11 07:49:19;;;;;;;;;;;;;;;1.63;68.13;97580.66;7374287;19;19925;-84
2023/03/11 07:51:55;;;;;;;;;;;;;;;1.62;67.75;97575.56;7370105;19;19927;-86
2023/03/11 07:54:23;;;;;;;;;;;;;;;1.58;67.52;97569.78;7370087;19;20039;-85
2023/03/11 07:56:50;;;;;;;;;;;;;;;1.45;67.88;97575.09;7377260;19;19919;-84
2023/03/11 07:59:19;;;;;;;;;;;;;;;1.64;67.02;97573.69;7375970;19;20710;-84
2023/03/11 08:04:52;;;;;;;;;;;;;;;2.38;64.69;97595.59;7374459;19;19919;-84
2023/03/11 08:07:20;;;;;;;;;;;;;;;2.70;64.14;97597.38;7371507;19;20397;-85
2023/03/11 08:09:57;;;;;;;;;;;;;;;2.59;63.63;97600.84;7372940;19;20470;-84
2023/03/11 08:12:24;;;;;;;;;;;;;;;2.79;63.71;97590.56;7368366;19;19922;-85
2023/03/11 08:14:57;;;;;;;;;;;;;;;3.23;62.97;97597.31;7370161;19;19915;-85
2023/03/11 08:17:23;;;;;;;;;;;;;;;3.32;62.61;97595.72;7367687;19;20339;-84
2023/03/11 08:19:50;;;;;;;;;;;;;;;3.71;62.05;97598.50;7372745;19;20371;-84
2023/03/11 08:22:17;;;;;;;;;;;;;;;3.81;60.97;97615.06;7369328;19;20648;-84
2023/03/11 08:24:44;;;;;;;;;;;;;;;4.15;62.29;97612.16;7366422;19;19915;-85
2023/03/11 08:27:11;;;;;;;;;;;;;;;4.12;60.55;97607.19;7365991;19;19940;-84
2023/03/11 08:29:37;;;;;;;;;;;;;;;3.78;59.99;97612.72;7366675;19;19962;-85
2023/03/11 08:32:04;;;;;;;;;;;;;;;2.79;62.21;97624.50;7370510;19;22008;-84
2023/03/11 08:34:31;;;;;;;;;;;;;;;2.29;64.06;97624.19;7376710;19;19929;-84
2023/03/11 08:36:58;;;;;;;;;;;;;;;2.42;63.54;97620.50;7379838;19;19931;-85
2023/03/11 08:39:25;;;;;;;;;;;;;;;2.53;64.41;97627.47;7378944;19;19910;-86
2023/03/11 08:41:52;;;;;;;;;;;;;;;2.44;63.54;97633.41;7380301;19;20353;-85
2023/03/11 08:44:26;;;;;;;;;;;;;;;2.46;63.79;97631.53;7381584;19;19927;-87
2023/03/11 08:46:59;;;;;;;;;;;;;;;2.85;63.89;97631.88;7387466;19;19929;-91
2023/03/11 08:49:32;;;;;;;;;;;;;;;3.58;61.92;97630.13;7411014;19;19955;-84
2023/03/11 08:51:58;;;;;;;;;;;;;;;3.98;59.59;97624.09;7412384;19;19915;-86
2023/03/11 08:54:39;;;;;;;;;;;;;;;4.31;60.03;97624.72;7409710;19;19918;-86
2023/03/11 08:57:25;;;;;;;;;;;;;;;4.45;58.27;97631.38;7408377;19;20009;-86
2023/03/11 08:59:51;;;;;;;;;;;;;;;4.03;58.43;97637.63;7400238;19;19915;-86
2023/03/11 09:02:24;;;;;;;;;;;;;;;3.81;59.49;97637.78;7387810;19;19919;-87
2023/03/11 09:04:52;;;;;;;;;;;;;;;4.03;60.46;97640.25;7380760;19;19926;-87
2023/03/11 09:07:19;;;;;;;;;;;;;;;4.03;59.05;97636.78;7383072;19;20022;-86
2023/03/11 09:09:45;;;;;;;;;;;;;;;4.27;60.50;97632.03;7379063;19;20305;-87
2023/03/11 09:12:13;;;;;;;;;;;;;;;4.61;57.78;97643.00;7383068;19;19918;-88
2023/03/11 09:14:40;;;;;;;;;;;;;;;4.67;57.46;97638.16;7382093;19;19911;-86
2023/03/11 09:17:06;;;;;;;;;;;;;;;4.62;57.11;97635.94;7384815;19;19934;-85
2023/03/11 09:19:33;;;;;;;;;;;;;;;4.80;58.63;97639.53;7374148;19;20730;-85
2023/03/11 09:22:00;;;;;;;;;;;;;;;4.77;57.95;97650.31;7385084;19;19933;-85
2023/03/11 09:24:26;;;;;;;;;;;;;;;4.95;56.38;97650.47;7379644;19;19923;-84
2023/03/11 09:26:53;;;;;;;;;;;;;;;4.91;57.92;97645.63;7379214;19;19923;-83
2023/03/11 09:29:19;;;;;;;;;;;;;;;5.31;55.51;97647.25;7378771;19;20018;-86
2023/03/11 09:31:46;;;;;;;;;;;;;;;5.53;55.15;97652.19;7383398;19;19914;-86
2023/03/11 09:34:15;;;;;;;;;;;;;;;5.49;54.69;97656.06;7382597;19;19934;-84
2023/03/11 09:36:47;;;;;;;;;;;;;;;5.09;55.26;97657.06;7376961;19;19907;-84
2023/03/11 09:39:13;;;;;;;;;;;;;;;4.67;56.56;97665.19;7382675;19;19918;-84
2023/03/11 09:41:46;;;;;;;;;;;;;;;3.72;58.50;97662.97;7368958;19;20450;-85
2023/03/11 09:44:27;;;;;;;;;;;;;;;3.84;58.53;97664.53;7375851;19;20485;-84
2023/03/11 09:46:58;;;;;;;;;;;;;;;3.97;58.81;97659.06;7377802;19;19930;-84
2023/03/11 09:49:25;;;;;;;;;;;;;;;4.21;57.62;97647.44;7370233;19;19940;-84
2023/03/11 09:52:10;;;;;;;;;;;;;;;4.55;57.13;97647.94;7378584;19;19919;-83
2023/03/11 09:54:47;;;;;;;;;;;;;;;4.77;57.40;97657.34;7376349;19;19938;-85
2023/03/11 09:57:21;;;;;;;;;;;;;;;4.72;56.17;97657.75;7374885;19;19919;-86
2023/03/11 09:59:50;;;;;;;;;;;;;;;4.96;58.04;97654.72;7376728;19;21005;-85
2023/03/11 10:02:47;;;;;;;;;;;;;;;5.16;56.45;97646.84;7373279;19;19942;-84
2023/03/11 10:05:19;;;;;;;;;;;;;;;5.12;57.67;97648.91;7373759;19;20013;-85
2023/03/11 10:07:46;;;;;;;;;;;;;;;5.07;57.61;97651.13;7373115;19;19922;-84
2023/03/11 10:10:13;;;;;;;;;;;;;;;4.96;57.72;97643.41;7377727;19;19915;-85
2023/03/11 10:12:55;;;;;;;;;;;;;;;4.87;56.73;97649.47;7368495;19;21076;-85
2023/03/11 10:15:27;;;;;;;;;;;;;;;5.04;56.31;97646.16;7373304;19;20531;-84
2023/03/11 10:18:02;;;;;;;;;;;;;;;5.11;57.08;97649.03;7379343;19;19950;-86
2023/03/11 10:20:56;;;;;;;;;;;;;;;5.15;57.04;97651.25;7373917;19;19914;-85
2023/03/11 10:23:31;;;;;;;;;;;;;;;5.09;55.73;97646.59;7371470;19;19925;-85
2023/03/11 10:26:12;;;;;;;;;;;;;;;5.10;55.54;97648.22;7371703;19;19919;-85
2023/03/11 10:28:41;;;;;;;;;;;;;;;5.14;57.12;97641.75;7367725;19;19918;-85
2023/03/11 10:31:21;;;;;;;;;;;;;;;5.42;55.75;97649.69;7375188;19;19927;-84
2023/03/11 10:33:54;;;;;;;;;;;;;;;5.25;55.28;97659.94;7370088;19;23089;-85
2023/03/11 10:36:23;;;;;;;;;;;;;;;5.48;55.42;97659.66;7371353;19;20256;-85
2023/03/11 10:38:51;;;;;;;;;;;;;;;4.95;55.96;97649.59;7367793;19;20273;-85
2023/03/11 10:41:31;;;;;;;;;;;;;;;5.05;56.44;97653.91;7366577;19;20340;-84
2023/03/11 10:44:02;;;;;;;;;;;;;;;5.08;55.22;97652.78;7373520;19;20388;-84
2023/03/11 10:46:28;;;;;;;;;;;;;;;5.50;54.76;97648.06;7368763;19;20327;-84
2023/03/11 10:48:55;;;;;;;;;;;;;;;6.28;51.63;97647.78;7376515;19;19939;-86
2023/03/11 10:51:44;;;;;;;;;;;;;;;6.93;50.21;97650.25;7368214;19;20196;-84
2023/03/11 10:54:30;;;;;;;;;;;;;;;8.00;47.92;97641.28;7370434;19;19986;-88
2023/03/11 10:57:01;;;;;;;;;;;;;;;8.90;46.24;97628.44;7377824;19;19959;-86
2023/03/11 10:59:47;;;;;;;;;;;;;;;9.30;47.20;97636.53;7376014;19;19918;-86
2023/03/11 11:02:20;;;;;;;;;;;;;;;9.59;44.47;97636.81;7378200;19;19922;-83
2023/03/11 11:05:04;;;;;;;;;;;;;;;9.37;45.09;97637.47;7377805;19;19914;-85
2023/03/11 11:07:32;;;;;;;;;;;;;;;8.02;43.67;97643.78;7362422;19;20307;-84
2023/03/11 11:10:11;;;;;;;;;;;;;;;7.55;46.46;97657.31;7374139;19;19923;-86
2023/03/11 11:12:50;;;;;;;;;;;;;;;6.42;47.28;97651.69;7369038;19;19958;-85
2023/03/11 11:15:30;;;;;;;;;;;;;;;6.04;49.45;97658.00;7375050;19;19923;-84
2023/03/11 11:18:00;;;;;;;;;;;;;;;5.45;51.88;97666.00;7376212;19;19993;-83
2023/03/11 11:20:27;;;;;;;;;;;;;;;4.90;52.58;97670.16;7372205;19;19998;-84
2023/03/11 11:22:55;;;;;;;;;;;;;;;5.00;52.52;97666.59;7365744;19;19914;-83
2023/03/11 11:25:35;;;;;;;;;;;;;;;5.09;52.52;97657.06;7372399;19;19923;-86
2023/03/11 11:28:18;;;;;;;;;;;;;;;5.25;52.11;97659.94;7379935;19;19926;-84
2023/03/11 11:31:00;;;;;;;;;;;;;;;5.32;53.14;97662.84;7373202;19;20329;-85
2023/03/11 11:33:38;;;;;;;;;;;;;;;6.28;50.93;97660.91;7376904;19;19919;-85
2023/03/11 11:36:11;;;;;;;;;;;;;;;6.41;47.54;97663.19;7378428;19;20348;-85
2023/03/11 11:38:37;;;;;;;;;;;;;;;6.37;46.73;97659.19;7369183;19;20703;-83
2023/03/11 11:41:04;;;;;;;;;;;;;;;6.65;47.38;97662.63;7366288;19;19943;-84
2023/03/11 11:43:47;;;;;;;;;;;;;;;6.45;47.59;97661.09;7372101;19;19961;-86
2023/03/11 11:46:20;;;;;;;;;;;;;;;6.50;48.46;97662.31;7373442;19;19923;-84
2023/03/11 11:49:06;;;;;;;;;;;;;;;6.46;49.82;97653.06;7372200;19;19929;-85
2023/03/11 11:51:39;;;;;;;;;;;;;;;5.93;48.84;97658.97;7375187;19;19962;-85
2023/03/11 11:54:16;;;;;;;;;;;;;;;5.68;48.90;97663.88;7375121;19;21055;-84
2023/03/11 11:56:46;;;;;;;;;;;;;;;6.17;48.62;97644.53;7364403;19;20295;-84
2023/03/11 11:59:14;;;;;;;;;;;;;;;6.41;48.50;97644.81;7370654;19;19930;-83
2023/03/11 12:01:43;;;;;;;;;;;;;;;6.55;48.15;97640.84;7376818;19;21309;-85
2023/03/11 12:04:12;;;;;;;;;;;;;;;7.01;47.35;97645.06;7376614;19;19951;-84
2023/03/11 12:06:49;;;;;;;;;;;;;;;7.11;46.96;97631.00;7369304;19;20288;-84
2023/03/11 12:09:27;;;;;;;;;;;;;;;7.62;45.25;97630.22;7377618;19;19943;-86
2023/03/11 12:12:00;;;;;;;;;;;;;;;8.27;45.68;97628.91;7375304;19;19930;-85
2023/03/11 12:14:29;;;;;;;;;;;;;;;8.56;45.36;97616.16;7376277;19;19927;-88
2023/03/11 12:16:57;;;;;;;;;;;;;;;8.93;45.20;97616.72;7380704;19;19903;-86
2023/03/11 12:19:35;;;;;;;;;;;;;;;9.05;42.80;97612.75;7373278;19;20280;-84
2023/03/11 12:22:14;;;;;;;;;;;;;;;8.79;41.17;97615.53;7377589;19;19921;-85
2023/03/11 12:24:59;;;;;;;;;;;;;;;7.66;41.97;97618.41;7377861;19;19927;-85
2023/03/11 12:27:30;;;;;;;;;;;;;;;7.56;42.68;97609.78;7374188;19;19960;-84
2023/03/11 12:30:06;;;;;;;;;;;;;;;7.16;42.24;97613.81;7378021;19;19926;-87
2023/03/11 12:32:32;;;;;;;;;;;;;;;6.75;44.02;97612.63;7382061;19;19914;-86
2023/03/11 12:35:21;;;;;;;;;;;;;;;6.77;44.43;97605.44;7387601;19;19927;-86
2023/03/11 12:37:55;;;;;;;;;;;;;;;6.94;43.92;97601.13;7380555;19;20549;-86
2023/03/11 12:40:40;;;;;;;;;;;;;;;7.38;44.80;97596.69;7385547;19;19923;-84
2023/03/11 12:43:28;;;;;;;;;;;;;;;7.25;43.06;97606.78;7386785;19;19939;-85
2023/03/11 12:45:58;;;;;;;;;;;;;;;7.26;44.72;97608.44;7384460;19;19919;-86
2023/03/11 12:48:27;;;;;;;;;;;;;;;7.28;43.71;97595.97;7393414;19;19923;-86
2023/03/11 12:50:56;;;;;;;;;;;;;;;7.12;43.07;97604.56;7390953;19;19923;-85
2023/03/11 12:53:42;;;;;;;;;;;;;;;7.40;42.97;97610.53;7379725;19;20293;-83
2023/03/11 12:56:30;;;;;;;;;;;;;;;7.99;43.38;97613.31;7376661;19;20453;-84
2023/03/11 12:59:15;;;;;;;;;;;;;;;7.13;44.68;97600.13;7377791;19;19923;-87
2023/03/11 13:01:44;;;;;;;;;;;;;;;7.18;47.42;97605.75;7368652;19;19930;-85
2023/03/11 13:04:14;;;;;;;;;;;;;;;7.14;45.13;97607.03;7375605;19;20005;-85
2023/03/11 13:06:55;;;;;;;;;;;;;;;6.97;43.24;97606.06;7373883;19;19919;-86
2023/03/11 13:09:21;;;;;;;;;;;;;;;6.99;45.16;97612.84;7379286;19;19922;-85
2023/03/11 13:11:48;;;;;;;;;;;;;;;6.81;65.59;97607.59;7374596;19;19926;-85
2023/03/11 13:14:31;;;;;;;;;;;;;;;6.47;70.20;97610.03;7381373;19;20364;-86